Lenore, ID

6:45 PM PST on March 04, 2015 (GMT -0800)
Harvest Vista/Pheasant Trail Estates @ Schaub Ranch | Change Station
CLOSE
Current Station
Personal Weather Station
Location: Lewiston, ID
Elevation: 1435 ft
Nearby Weather Stations

Elev 1435 ft 46.41 °N, 116.91 °W | Updated 0 second ago

Clear
Clear
35.0 °F
Feels Like 32 °F
N
4.0
Wind Variable Wind from ENE
Gusts 5.0 mph

Today
High -- | Low -- °F
--% Chance of Precip.
Yesterday
High -- | Low -- °F
Precip. -- in
6:20 AM 5:36 PM
Full, 100% visible
Pressure 30.31 in
Visibility 10.0 miles
Clouds Clear
Windchill 32 °F
Dew Point 18 °F
Humidity 49%
Rainfall 0.00 in
Snow Depth Not available.
UV 0 out of 12
Pollen 4.20 out of 12
Air Quality Not available.
Flu Activity Not available.
METAR KLWS 050156Z 08005KT 10SM CLR 06/M10 A3026 RMK AO2 SLP262 T00611100

More Conditions Fewer Conditions

Pressure 30.31 in
Visibility 10.0 miles
Clouds Clear
Windchill 32 °F
Dew Point 18 °F
Humidity 49%
Rainfall 0.00 in
Snow Depth Not available.
UV 0 out of 12
Pollen 4.20 out of 12
Air Quality Not available.
Flu Activity Not available.
METAR KLWS 050156Z 08005KT 10SM CLR 06/M10 A3026 RMK AO2 SLP262 T00611100

More Conditions Fewer Conditions

10-Day Weather Forecast

Almanac

Astronomy

Mar. 04, 2015 Rise Set
Actual Time
Civil Twilight
Nautical Twilight
Astronomical Twilight
Moon
Length of Visible Light
Length of Day
Tomorrow will be .
, % of the Moon is Illuminated

Today's Extremes

State Highs State Lows

Community

WunderPhotos

Upload Photos

1,802,634 photos uploaded!

WunderBlogs® & News

Nearby

Air Quality

  Air Quality AQ Index Pollutant
Not available.

Snow Depth

Station Depth Elevation

Earthquake Activity

City Distance Mag. Time & Date
Minimum magnitude displayed is 2.5.

Coastal Water Temperatures

Place Temperature

Nearby Weather Stations